createdAt,value
2018-09-11T00:01:43.026Z,4.60
2018-09-11T00:04:10.767Z,4.57
2018-09-11T00:06:38.746Z,5.20
2018-09-11T00:09:09.116Z,4.20
2018-09-11T00:11:37.411Z,5.20
2018-09-11T00:14:05.786Z,4.70
2018-09-11T00:16:33.741Z,4.97
2018-09-11T00:19:01.756Z,5.07
2018-09-11T00:21:29.842Z,5.23
2018-09-11T00:23:57.850Z,4.80
2018-09-11T00:26:25.959Z,5.60
2018-09-11T00:28:53.775Z,5.80
2018-09-11T00:31:21.525Z,6.20
2018-09-11T00:33:50.363Z,5.13
2018-09-11T00:36:18.653Z,5.20
2018-09-11T00:38:46.652Z,4.70
2018-09-11T00:41:14.623Z,4.80
2018-09-11T00:43:42.675Z,4.63
2018-09-11T00:46:11.353Z,5.33
2018-09-11T00:48:39.326Z,5.50
2018-09-11T00:51:07.351Z,4.87
2018-09-11T00:53:35.213Z,5.30
2018-09-11T00:56:03.257Z,5.27
2018-09-11T00:58:31.005Z,5.47
2018-09-11T01:00:58.921Z,5.10
2018-09-11T01:03:27.071Z,5.60
2018-09-11T01:05:54.822Z,5.70
2018-09-11T01:08:22.678Z,5.47
2018-09-11T01:10:50.466Z,5.87
2018-09-11T01:13:18.136Z,6.03
2018-09-11T01:15:46.124Z,5.50
2018-09-11T01:18:13.941Z,5.80
2018-09-11T01:20:43.850Z,4.80
2018-09-11T01:23:11.532Z,5.10
2018-09-11T01:25:39.485Z,5.20
2018-09-11T01:28:07.644Z,4.90
2018-09-11T01:30:35.419Z,5.40
2018-09-11T01:33:03.348Z,5.10
2018-09-11T01:35:31.315Z,5.47
2018-09-11T01:37:59.048Z,4.90
2018-09-11T01:40:26.911Z,5.37
2018-09-11T01:42:54.873Z,6.00
2018-09-11T01:45:22.692Z,5.07
2018-09-11T01:47:50.328Z,5.33
2018-09-11T01:50:18.832Z,5.27
2018-09-11T01:52:46.988Z,4.87
2018-09-11T01:55:15.257Z,4.90
2018-09-11T01:57:43.471Z,5.23
2018-09-11T02:00:19.670Z,5.43
2018-09-11T02:02:47.696Z,5.33
2018-09-11T02:05:15.758Z,6.20
2018-09-11T02:07:43.693Z,5.03
2018-09-11T02:10:12.120Z,5.23
2018-09-11T02:12:39.988Z,5.30
2018-09-11T02:15:08.621Z,4.63
2018-09-11T02:17:36.362Z,5.33
2018-09-11T02:20:04.370Z,5.10
2018-09-11T02:22:32.248Z,6.40
2018-09-11T02:25:00.188Z,5.47
2018-09-11T02:27:27.906Z,6.53
2018-09-11T02:29:55.768Z,6.07
2018-09-11T02:32:23.921Z,5.20
2018-09-11T02:34:51.890Z,6.13
2018-09-11T02:37:19.878Z,5.30
2018-09-11T02:39:47.727Z,5.63
2018-09-11T02:42:15.500Z,5.87
2018-09-11T02:44:43.316Z,5.83
2018-09-11T02:47:11.743Z,5.83
2018-09-11T02:49:39.623Z,5.70
2018-09-11T02:52:07.358Z,6.00
2018-09-11T02:54:35.222Z,5.40
2018-09-11T02:59:55.768Z,6.03
2018-09-11T03:02:23.606Z,5.90
2018-09-11T03:04:51.323Z,5.73
2018-09-11T03:07:19.580Z,5.10
2018-09-11T03:09:47.694Z,6.20
2018-09-11T03:12:15.611Z,5.40
2018-09-11T03:14:43.829Z,6.03
2018-09-11T03:17:11.914Z,6.70
2018-09-11T03:19:39.952Z,6.37
2018-09-11T03:22:08.147Z,6.50
2018-09-11T03:24:35.885Z,5.97
2018-09-11T03:27:04.117Z,6.20
2018-09-11T03:29:31.919Z,6.83
2018-09-11T03:32:00.016Z,5.70
2018-09-11T03:34:28.060Z,6.33
2018-09-11T03:36:56.315Z,6.70
2018-09-11T03:39:24.310Z,5.73
2018-09-11T03:41:52.455Z,6.20
2018-09-11T03:44:20.293Z,6.80
2018-09-11T03:46:48.672Z,6.20
2018-09-11T03:49:16.587Z,5.93
2018-09-11T03:51:44.556Z,6.53
2018-09-11T03:54:12.183Z,5.93
2018-09-11T03:56:41.060Z,5.90
2018-09-11T03:59:08.872Z,5.97
2018-09-11T04:01:36.923Z,8.67
2018-09-11T04:04:04.795Z,6.77
2018-09-11T04:06:32.907Z,7.60
2018-09-11T04:09:00.821Z,6.97
2018-09-11T04:11:28.809Z,6.93
2018-09-11T04:13:56.772Z,7.67
2018-09-11T04:16:24.592Z,7.17
2018-09-11T04:18:52.549Z,7.80
2018-09-11T04:21:20.469Z,7.77
2018-09-11T04:23:48.662Z,7.90
2018-09-11T04:26:16.804Z,9.80
2018-09-11T04:28:44.882Z,7.50
2018-09-11T04:31:13.009Z,7.17
2018-09-11T04:33:40.838Z,7.80
2018-09-11T04:36:08.499Z,7.03
2018-09-11T04:38:36.276Z,8.30
2018-09-11T04:41:04.296Z,8.10
2018-09-11T04:43:32.259Z,8.10
2018-09-11T04:46:00.058Z,8.23
2018-09-11T04:48:28.245Z,7.47
2018-09-11T04:50:56.232Z,7.83
2018-09-11T04:53:27.698Z,7.60
2018-09-11T04:55:56.546Z,6.80
2018-09-11T04:58:24.206Z,7.00
2018-09-11T05:00:52.258Z,7.47
2018-09-11T05:03:41.424Z,7.90
2018-09-11T05:06:09.145Z,7.90
2018-09-11T05:08:37.604Z,8.27
2018-09-11T05:11:06.599Z,8.70
2018-09-11T05:13:35.355Z,7.93
2018-09-11T05:19:07.135Z,8.17
2018-09-11T05:21:35.787Z,8.20
2018-09-11T05:24:03.570Z,6.60
2018-09-11T05:26:31.805Z,8.07
2018-09-11T05:29:01.290Z,7.57
2018-09-11T05:31:30.557Z,8.17
2018-09-11T05:34:03.289Z,7.70
2018-09-11T05:36:31.980Z,8.37
2018-09-11T05:38:59.865Z,8.63
2018-09-11T05:41:30.766Z,7.23
2018-09-11T05:43:58.877Z,8.67
2018-09-11T05:46:27.830Z,8.10
2018-09-11T05:48:55.812Z,8.00
2018-09-11T05:51:23.735Z,8.53
2018-09-11T05:53:52.524Z,7.93
2018-09-11T05:56:21.040Z,7.97
2018-09-11T05:58:49.050Z,8.67
2018-09-11T06:01:21.926Z,8.30
2018-09-11T06:03:50.128Z,7.43
2018-09-11T06:06:19.877Z,8.10
2018-09-11T06:08:51.470Z,7.33
2018-09-11T06:11:19.175Z,7.80
2018-09-11T06:16:45.731Z,8.43
2018-09-11T06:19:18.844Z,7.53
2018-09-11T06:21:48.049Z,7.53
2018-09-11T06:24:15.847Z,8.30
2018-09-11T06:26:43.725Z,6.90
2018-09-11T06:29:11.711Z,6.83
2018-09-11T06:31:39.438Z,6.87
2018-09-11T06:34:16.422Z,7.83
2018-09-11T06:36:46.953Z,6.80
2018-09-11T06:39:14.853Z,6.20
2018-09-11T06:41:42.777Z,6.33
2018-09-11T06:44:10.809Z,5.03
2018-09-11T06:46:38.739Z,5.13
2018-09-11T06:49:06.787Z,6.93
2018-09-11T06:54:28.762Z,4.60
2018-09-11T06:57:04.065Z,4.93
2018-09-11T06:59:52.721Z,4.50
2018-09-11T07:02:27.573Z,4.67
2018-09-11T07:04:58.809Z,4.80
2018-09-11T07:07:45.270Z,4.80
2018-09-11T07:10:13.019Z,5.37
2018-09-11T07:12:40.706Z,5.17
2018-09-11T07:17:52.587Z,4.30
2018-09-11T07:20:21.132Z,5.50
2018-09-11T07:22:50.782Z,4.37
2018-09-11T07:25:38.359Z,4.40
2018-09-11T07:28:21.793Z,4.40
2018-09-11T07:30:49.641Z,4.07
2018-09-11T07:33:18.510Z,4.73
2018-09-11T07:35:52.742Z,4.03
2018-09-11T07:38:20.769Z,4.20
2018-09-11T07:40:50.491Z,3.93
2018-09-11T07:43:30.471Z,3.40
2018-09-11T07:46:02.649Z,4.23
2018-09-11T07:48:30.506Z,4.83
2018-09-11T07:50:58.384Z,4.50
2018-09-11T07:53:42.486Z,4.00
2018-09-11T07:59:34.838Z,3.80
2018-09-11T08:02:02.918Z,3.80
2018-09-11T08:04:31.384Z,4.23
2018-09-11T08:07:11.628Z,3.80
2018-09-11T08:09:40.742Z,3.67
2018-09-11T08:12:08.359Z,3.67
2018-09-11T08:14:36.883Z,3.50
2018-09-11T08:17:04.703Z,4.20
2018-09-11T08:19:32.386Z,3.10
2018-09-11T08:22:00.020Z,2.90
2018-09-11T08:24:28.360Z,3.20
2018-09-11T08:27:00.204Z,3.50
2018-09-11T08:29:28.030Z,3.20
2018-09-11T08:31:55.786Z,3.60
2018-09-11T08:34:43.059Z,3.80
2018-09-11T08:37:10.848Z,4.00
2018-09-11T08:39:39.267Z,3.30
2018-09-11T08:42:07.251Z,3.40
2018-09-11T08:44:35.415Z,3.57
2018-09-11T08:47:03.197Z,3.30
2018-09-11T08:52:16.467Z,3.70
2018-09-11T08:54:44.234Z,3.40
2018-09-11T08:57:13.133Z,3.73
2018-09-11T08:59:41.470Z,2.60
2018-09-11T09:02:09.493Z,3.40
2018-09-11T09:04:37.211Z,2.77
2018-09-11T09:07:15.617Z,2.70
2018-09-11T09:09:46.228Z,3.70
2018-09-11T09:12:18.138Z,2.70
2018-09-11T09:14:46.675Z,3.10
2018-09-11T09:17:15.441Z,2.80
2018-09-11T09:22:17.654Z,2.90
2018-09-11T09:24:46.143Z,2.90
2018-09-11T09:27:14.104Z,2.70
2018-09-11T09:29:41.880Z,3.10
2018-09-11T09:32:09.849Z,3.23
2018-09-11T09:34:50.731Z,2.80
2018-09-11T09:37:18.658Z,2.60
2018-09-11T09:39:46.615Z,3.40
2018-09-11T09:42:14.469Z,3.03
2018-09-11T09:44:44.304Z,2.37
2018-09-11T09:47:16.089Z,2.87
2018-09-11T09:49:44.027Z,3.47
2018-09-11T09:52:12.032Z,3.40
2018-09-11T09:54:39.755Z,3.47
2018-09-11T09:57:07.514Z,2.57
2018-09-11T09:59:35.449Z,2.73
2018-09-11T10:02:04.299Z,2.90
2018-09-11T10:04:32.892Z,3.27
2018-09-11T10:07:04.959Z,2.77
2018-09-11T10:09:32.830Z,2.53
2018-09-11T10:12:01.201Z,3.13
2018-09-11T10:14:28.924Z,3.47
2018-09-11T10:19:59.218Z,2.60
2018-09-11T10:22:27.069Z,3.37
2018-09-11T10:24:54.832Z,2.60
2018-09-11T10:27:22.742Z,3.20
2018-09-11T10:29:50.567Z,3.13
2018-09-11T10:32:19.149Z,2.77
2018-09-11T10:34:46.869Z,2.90
2018-09-11T10:37:15.037Z,2.63
2018-09-11T10:39:44.793Z,2.33
2018-09-11T10:42:13.739Z,2.20
2018-09-11T10:44:44.370Z,2.10
2018-09-11T10:47:19.305Z,2.50
2018-09-11T10:52:24.777Z,2.20
2018-09-11T10:54:53.289Z,2.17
2018-09-11T10:57:26.767Z,2.40
2018-09-11T10:59:56.667Z,2.30
2018-09-11T11:02:32.316Z,2.13
2018-09-11T11:05:00.281Z,2.27
2018-09-11T11:07:28.645Z,2.30
2018-09-11T11:09:57.528Z,2.20
2018-09-11T11:12:25.891Z,2.10
2018-09-11T11:14:54.528Z,2.23
2018-09-11T11:17:27.976Z,2.07
2018-09-11T11:19:56.069Z,2.00
2018-09-11T11:22:24.423Z,2.10
2018-09-11T11:24:52.423Z,2.40
2018-09-11T11:27:20.156Z,2.50
2018-09-11T11:29:48.213Z,2.17
2018-09-11T11:32:24.765Z,2.40
2018-09-11T11:34:53.374Z,2.67
2018-09-11T11:37:25.733Z,2.33
2018-09-11T11:39:53.396Z,1.77
2018-09-11T11:42:21.479Z,2.10
2018-09-11T11:44:50.622Z,2.50
2018-09-11T11:47:24.884Z,2.70
2018-09-11T11:49:53.198Z,2.20
2018-09-11T11:52:20.952Z,1.90
2018-09-11T11:54:51.212Z,1.93
2018-09-11T11:57:19.613Z,1.90
2018-09-11T11:59:48.832Z,2.00
2018-09-11T12:02:16.554Z,1.80
2018-09-11T12:04:44.293Z,2.13
2018-09-11T12:07:12.162Z,1.80
2018-09-11T12:09:41.672Z,2.17
2018-09-11T12:12:10.227Z,1.83
2018-09-11T12:14:41.565Z,2.27
2018-09-11T12:17:14.056Z,2.17
2018-09-11T12:19:46.175Z,2.27
2018-09-11T12:22:13.935Z,2.10
2018-09-11T12:24:42.027Z,2.07
2018-09-11T12:27:19.646Z,2.43
2018-09-11T12:29:48.578Z,1.87
2018-09-11T12:32:16.870Z,2.20
2018-09-11T12:34:48.414Z,2.70
2018-09-11T12:37:21.725Z,2.30
2018-09-11T12:39:50.047Z,2.23
2018-09-11T12:42:17.957Z,2.10
2018-09-11T12:44:46.132Z,1.87
2018-09-11T12:47:15.159Z,2.43
2018-09-11T12:49:42.961Z,2.50
2018-09-11T12:52:11.953Z,2.57
2018-09-11T12:54:41.025Z,2.50
2018-09-11T12:57:11.166Z,2.27
2018-09-11T12:59:38.849Z,2.27
2018-09-11T13:02:12.133Z,2.43
2018-09-11T13:04:41.095Z,2.00
2018-09-11T13:07:12.291Z,1.90
2018-09-11T13:09:42.149Z,2.47
2018-09-11T13:12:10.408Z,2.57
2018-09-11T13:14:38.818Z,2.90
2018-09-11T13:17:07.116Z,2.67
2018-09-11T13:19:39.927Z,2.30
2018-09-11T13:22:10.944Z,2.90
2018-09-11T13:24:40.848Z,2.70
2018-09-11T13:27:10.147Z,2.90
2018-09-11T13:30:00.100Z,2.77
2018-09-11T13:32:28.777Z,2.40
2018-09-11T13:34:57.449Z,2.43
2018-09-11T13:37:25.303Z,2.10
2018-09-11T13:39:53.814Z,2.40
2018-09-11T13:42:21.525Z,2.20
2018-09-11T13:44:49.381Z,3.33
2018-09-11T13:47:18.964Z,2.77
2018-09-11T13:49:48.673Z,2.70
2018-09-11T13:52:17.876Z,2.50
2018-09-11T13:54:50.996Z,2.40
2018-09-11T13:57:19.002Z,3.13
2018-09-11T13:59:50.216Z,2.30
2018-09-11T14:02:17.889Z,2.83
2018-09-11T14:04:46.530Z,2.63
2018-09-11T14:07:15.312Z,2.87
2018-09-11T14:09:45.670Z,3.00
2018-09-11T14:12:14.333Z,2.70
2018-09-11T14:14:42.743Z,2.27
2018-09-11T14:17:10.574Z,2.67
2018-09-11T14:22:31.277Z,2.57
2018-09-11T14:25:02.325Z,2.83
2018-09-11T14:27:30.546Z,2.33
2018-09-11T14:29:59.137Z,2.40
2018-09-11T14:32:26.982Z,2.67
2018-09-11T14:35:00.257Z,2.77
2018-09-11T14:37:28.502Z,2.67
2018-09-11T14:39:56.334Z,2.73
2018-09-11T14:42:24.455Z,3.27
2018-09-11T14:45:01.561Z,2.90
2018-09-11T14:47:35.233Z,2.40
2018-09-11T14:50:07.866Z,3.37
2018-09-11T14:52:36.185Z,2.80
2018-09-11T14:55:04.786Z,2.77
2018-09-11T14:57:35.448Z,2.40
2018-09-11T15:00:07.595Z,2.60
2018-09-11T15:02:35.958Z,2.63
2018-09-11T15:05:04.464Z,2.30
2018-09-11T15:10:14.364Z,2.20
2018-09-11T15:12:42.599Z,3.13
2018-09-11T15:15:10.561Z,2.50
2018-09-11T15:17:38.363Z,3.00
2018-09-11T15:20:06.274Z,2.70
2018-09-11T15:22:34.119Z,2.77
2018-09-11T15:25:02.691Z,3.00
2018-09-11T15:27:30.423Z,2.50
2018-09-11T15:30:02.827Z,2.70
2018-09-11T15:32:30.869Z,2.72
2018-09-11T15:35:00.913Z,2.27
2018-09-11T15:37:29.021Z,3.67
2018-09-11T15:40:03.641Z,2.73
2018-09-11T15:42:32.664Z,2.90
2018-09-11T15:45:16.644Z,2.60
2018-09-11T15:47:44.394Z,2.70
2018-09-11T15:50:12.357Z,2.70
2018-09-11T15:52:44.586Z,2.93
2018-09-11T15:55:12.423Z,3.53
2018-09-11T15:57:40.251Z,2.97
2018-09-11T16:00:08.369Z,3.20
2018-09-11T16:02:37.223Z,4.10
2018-09-11T16:05:06.216Z,2.47
2018-09-11T16:07:33.815Z,3.30
2018-09-11T16:10:06.801Z,3.07
2018-09-11T16:12:34.975Z,3.07
2018-09-11T16:15:02.703Z,3.13
2018-09-11T16:17:30.659Z,3.50
2018-09-11T16:19:58.788Z,2.97
2018-09-11T16:22:26.566Z,2.93
2018-09-11T16:24:54.237Z,2.90
2018-09-11T16:27:32.346Z,3.50
2018-09-11T16:30:04.810Z,3.87
2018-09-11T16:32:32.675Z,5.43
2018-09-11T16:35:00.319Z,3.10
2018-09-11T16:37:28.023Z,2.70
2018-09-11T16:39:55.736Z,3.33
2018-09-11T16:42:23.573Z,2.63
2018-09-11T16:44:51.537Z,3.10
2018-09-11T16:47:19.298Z,3.33
2018-09-11T16:49:47.053Z,3.10
2018-09-11T16:52:16.863Z,3.27
2018-09-11T16:54:45.571Z,2.87
2018-09-11T16:57:13.529Z,3.63
2018-09-11T16:59:41.172Z,2.80
2018-09-11T17:02:09.621Z,3.20
2018-09-11T17:04:47.391Z,3.30
2018-09-11T17:07:15.777Z,2.53
2018-09-11T17:09:44.841Z,3.03
2018-09-11T17:12:12.809Z,2.90
2018-09-11T17:14:40.787Z,3.00
2018-09-11T17:17:09.543Z,2.77
2018-09-11T17:19:37.951Z,2.90
2018-09-11T17:25:08.944Z,2.83
2018-09-11T17:27:36.605Z,2.50
2018-09-11T17:30:06.643Z,4.60
2018-09-11T17:32:34.368Z,2.90
2018-09-11T17:35:02.123Z,3.60
2018-09-11T17:37:30.172Z,3.20
2018-09-11T17:39:57.936Z,3.03
2018-09-11T17:42:25.588Z,4.40
2018-09-11T17:44:58.530Z,3.07
2018-09-11T17:47:26.172Z,3.20
2018-09-11T17:49:54.819Z,3.33
2018-09-11T17:52:22.506Z,3.43
2018-09-11T17:54:53.125Z,2.87
2018-09-11T17:57:21.490Z,2.60
2018-09-11T17:59:50.512Z,3.07
2018-09-11T18:02:27.298Z,3.60
2018-09-11T18:04:55.471Z,2.97
2018-09-11T18:07:23.346Z,3.17
2018-09-11T18:09:51.413Z,3.10
2018-09-11T18:12:19.146Z,2.90
2018-09-11T18:14:46.771Z,3.07
2018-09-11T18:17:15.761Z,2.70
2018-09-11T18:19:43.526Z,3.30
2018-09-11T18:22:11.472Z,3.10
2018-09-11T18:24:42.047Z,2.70
2018-09-11T18:27:10.357Z,3.20
2018-09-11T18:29:37.978Z,3.33
2018-09-11T18:32:06.661Z,5.50
2018-09-11T18:34:35.725Z,3.90
2018-09-11T18:37:07.181Z,3.27
2018-09-11T18:39:34.927Z,3.00
2018-09-11T18:42:29.302Z,3.00
2018-09-11T18:44:58.554Z,3.20
2018-09-11T18:47:28.114Z,3.10
2018-09-11T18:50:18.985Z,3.10
2018-09-11T18:52:46.727Z,3.40
2018-09-11T18:55:14.384Z,3.23
2018-09-11T18:57:42.546Z,3.30
2018-09-11T19:00:10.139Z,3.30
2018-09-11T19:08:48.991Z,3.07
2018-09-11T19:11:29.053Z,3.03
2018-09-11T19:20:01.845Z,4.70
2018-09-11T19:22:30.520Z,3.40
2018-09-11T19:25:00.741Z,4.60
2018-09-11T19:33:35.829Z,11.53
2018-09-11T19:36:04.932Z,4.57
2018-09-11T19:38:33.796Z,4.67
2018-09-11T19:41:07.256Z,4.27
2018-09-11T19:43:59.435Z,3.40
2018-09-11T19:46:27.584Z,3.93
2018-09-11T19:48:55.402Z,5.13
2018-09-11T19:51:23.226Z,4.37
2018-09-11T19:53:54.389Z,5.07
2018-09-11T19:56:22.322Z,4.27
2018-09-11T19:58:50.554Z,4.10
2018-09-11T20:01:41.191Z,4.20
2018-09-11T20:04:09.241Z,4.07
2018-09-11T20:06:36.967Z,3.50
2018-09-11T20:09:08.549Z,4.27
2018-09-11T20:11:36.298Z,4.10
2018-09-11T20:14:12.456Z,3.40
2018-09-11T20:16:40.113Z,4.60
2018-09-11T20:19:07.803Z,3.70
2018-09-11T20:21:36.583Z,4.70
2018-09-11T20:24:04.975Z,4.10
2018-09-11T20:26:32.715Z,3.60
2018-09-11T20:29:13.473Z,4.17
2018-09-11T20:31:44.500Z,3.63
2018-09-11T20:34:31.903Z,4.30
2018-09-11T20:37:00.714Z,4.93
2018-09-11T20:39:51.345Z,4.27
2018-09-11T20:42:21.085Z,3.90
2018-09-11T20:45:05.017Z,5.40
2018-09-11T20:47:32.863Z,4.87
2018-09-11T20:50:02.009Z,5.87
2018-09-11T20:52:29.999Z,5.83
2018-09-11T20:54:57.648Z,5.70
2018-09-11T20:57:26.840Z,4.63
2018-09-11T21:00:05.538Z,4.17
2018-09-11T21:02:33.316Z,5.20
2018-09-11T21:05:01.256Z,5.33
2018-09-11T21:07:32.711Z,5.17
2018-09-11T21:10:01.290Z,4.70
2018-09-11T21:12:31.400Z,4.20
2018-09-11T21:15:02.713Z,4.60
2018-09-11T21:17:34.483Z,5.23
2018-09-11T21:20:02.535Z,5.40
2018-09-11T21:22:30.358Z,4.63
2018-09-11T21:25:14.956Z,4.70
2018-09-11T21:27:42.708Z,7.53
2018-09-11T21:30:11.059Z,6.27
2018-09-11T21:35:43.214Z,5.20
2018-09-11T21:41:13.643Z,5.20
2018-09-11T21:43:41.780Z,5.57
2018-09-11T21:46:28.648Z,4.77
2018-09-11T21:48:58.574Z,4.60
2018-09-11T21:51:26.388Z,4.30
2018-09-11T22:03:13.152Z,5.10
2018-09-11T22:08:53.199Z,4.53
2018-09-11T22:11:21.386Z,4.03
2018-09-11T22:13:49.952Z,4.10
2018-09-11T22:19:21.152Z,10.63
2018-09-11T22:21:48.672Z,5.50
2018-09-11T22:24:26.868Z,4.93
2018-09-11T22:26:55.264Z,4.50
2018-09-11T22:29:23.010Z,5.27
2018-09-11T22:31:51.661Z,3.97
2018-09-11T22:34:19.421Z,4.97
2018-09-11T22:36:47.056Z,4.60
2018-09-11T22:39:15.384Z,4.73
2018-09-11T22:41:43.395Z,5.10
2018-09-11T22:44:11.378Z,4.80
2018-09-11T22:46:39.704Z,4.63
2018-09-11T22:49:08.004Z,4.60
2018-09-11T22:51:35.719Z,4.77
2018-09-11T22:54:03.547Z,4.60
2018-09-11T22:56:31.716Z,4.57
2018-09-11T22:58:59.399Z,5.27
2018-09-11T23:01:27.304Z,4.10
2018-09-11T23:03:55.368Z,4.60
2018-09-11T23:06:23.069Z,4.60
2018-09-11T23:08:53.382Z,4.67
2018-09-11T23:11:21.185Z,4.00
2018-09-11T23:13:49.030Z,4.70
2018-09-11T23:16:16.723Z,4.80
2018-09-11T23:18:44.924Z,5.57
2018-09-11T23:21:12.999Z,5.07
2018-09-11T23:23:41.103Z,5.10
2018-09-11T23:26:09.503Z,4.10
2018-09-11T23:28:37.679Z,4.90
2018-09-11T23:31:05.384Z,3.97
2018-09-11T23:33:34.244Z,5.10
2018-09-11T23:36:02.352Z,4.73
2018-09-11T23:38:30.009Z,5.27
2018-09-11T23:40:57.886Z,5.17
2018-09-11T23:43:25.603Z,5.47
2018-09-11T23:45:53.470Z,4.93
2018-09-11T23:48:21.124Z,4.60
2018-09-11T23:50:48.924Z,5.40
2018-09-11T23:53:17.021Z,4.37
2018-09-11T23:55:44.692Z,5.10
2018-09-11T23:58:12.430Z,4.40
